Time;durP1;ratioP1;P1;durP2;ratioP2;P2;SDS_P1;SDS_P2;PMS_P1;PMS_P2;Temp;Humidity;BMP_temperature;BMP_pressure;BME280_temperature;BME280_humidity;BME280_pressure;Samples;Min_cycle;Max_cycle;Signal;HPM_P1;HPM_P2
2022/11/03 00:00:33;;;;;;;1.07;1.07;;;9.80;99.90;;;;;;4965945;28;20233;-66
2022/11/03 00:03:00;;;;;;;1.10;1.10;;;9.70;99.90;;;;;;4970710;28;20724;-65
2022/11/03 00:08:13;;;;;;;1.20;1.20;;;9.70;99.90;;;;;;4967655;28;20205;-66
2022/11/03 00:10:40;;;;;;;1.00;1.00;;;9.70;99.90;;;;;;4974193;28;20230;-65
2022/11/03 00:13:06;;;;;;;2.10;1.20;;;9.70;99.90;;;;;;4980349;28;20209;-66
2022/11/03 00:15:33;;;;;;;1.20;1.10;;;9.70;99.90;;;;;;4982854;28;20581;-65
2022/11/03 00:18:00;;;;;;;1.13;1.03;;;9.60;99.90;;;;;;4977735;28;20293;-66
2022/11/03 00:20:27;;;;;;;1.10;1.10;;;9.60;99.90;;;;;;4974960;28;20214;-66
2022/11/03 00:22:53;;;;;;;1.00;1.00;;;9.60;99.90;;;;;;4969988;28;20209;-66
2022/11/03 00:25:22;;;;;;;1.00;1.00;;;9.60;99.90;;;;;;4975490;28;20202;-66
2022/11/03 00:27:55;;;;;;;1.17;1.10;;;9.50;99.90;;;;;;4972774;28;20215;-66
2022/11/03 00:30:22;;;;;;;0.93;0.93;;;9.60;99.90;;;;;;4973054;28;20222;-66
2022/11/03 00:32:49;;;;;;;1.40;1.27;;;9.50;99.90;;;;;;4973087;28;20211;-67
2022/11/03 00:35:16;;;;;;;0.93;0.93;;;9.50;99.90;;;;;;4977907;28;20203;-66
2022/11/03 00:37:43;;;;;;;1.27;1.17;;;9.50;99.90;;;;;;4972753;28;20210;-65
2022/11/03 00:40:11;;;;;;;1.20;1.10;;;9.50;99.90;;;;;;4978380;28;20201;-66
2022/11/03 00:42:39;;;;;;;1.07;1.07;;;9.50;99.90;;;;;;4972710;28;20596;-66
2022/11/03 00:45:06;;;;;;;1.10;1.10;;;9.50;99.90;;;;;;4976659;28;20203;-66
2022/11/03 00:47:33;;;;;;;1.00;1.00;;;9.50;99.90;;;;;;4977880;28;20209;-66
2022/11/03 00:50:00;;;;;;;1.23;1.10;;;9.50;99.90;;;;;;4984100;28;20215;-65
2022/11/03 00:52:27;;;;;;;0.90;0.90;;;9.40;99.90;;;;;;4981090;28;20750;-65
2022/11/03 00:54:54;;;;;;;1.20;1.10;;;9.40;99.90;;;;;;4974207;28;20228;-66
2022/11/03 00:57:20;;;;;;;1.40;1.30;;;9.30;99.90;;;;;;4977095;28;20199;-67
2022/11/03 00:59:48;;;;;;;1.07;1.07;;;9.30;99.90;;;;;;4981977;28;20210;-66
2022/11/03 01:02:15;;;;;;;1.10;1.00;;;9.40;99.90;;;;;;4985276;28;20297;-66
2022/11/03 01:07:26;;;;;;;1.00;1.00;;;9.50;99.90;;;;;;4990463;28;20636;-67
2022/11/03 01:09:53;;;;;;;0.97;0.97;;;9.50;99.90;;;;;;4989310;28;20250;-66
2022/11/03 01:12:20;;;;;;;1.10;0.90;;;9.50;99.90;;;;;;4986947;28;20306;-67
2022/11/03 01:14:50;;;;;;;0.90;0.90;;;9.40;99.90;;;;;;4976898;28;20210;-66
2022/11/03 01:17:18;;;;;;;1.00;1.00;;;9.40;99.90;;;;;;4979171;28;20207;-66
2022/11/03 01:19:46;;;;;;;1.27;1.17;;;9.60;99.90;;;;;;4986878;28;20229;-65
2022/11/03 01:22:13;;;;;;;1.07;1.07;;;9.50;99.90;;;;;;4976304;28;20227;-66
2022/11/03 01:24:41;;;;;;;1.00;1.00;;;9.60;99.90;;;;;;4975318;28;20211;-66
2022/11/03 01:27:09;;;;;;;1.23;1.13;;;9.50;99.90;;;;;;4975600;28;20203;-66
2022/11/03 01:29:36;;;;;;;1.03;1.03;;;9.40;99.90;;;;;;4975334;28;20222;-66
2022/11/03 01:32:04;;;;;;;1.00;0.93;;;9.40;99.90;;;;;;4976145;28;20229;-67
2022/11/03 01:34:31;;;;;;;1.00;1.00;;;9.40;99.90;;;;;;4977563;28;20203;-66
2022/11/03 01:36:58;;;;;;;1.03;1.03;;;9.30;99.90;;;;;;4976967;28;20221;-66
2022/11/03 01:39:25;;;;;;;1.30;1.20;;;9.20;99.90;;;;;;4978015;28;20209;-66
2022/11/03 01:41:52;;;;;;;1.30;1.20;;;9.20;99.90;;;;;;4976977;28;20240;-66
2022/11/03 01:44:34;;;;;;;0.90;0.90;;;9.10;99.90;;;;;;4975249;28;20203;-66
2022/11/03 01:47:08;;;;;;;0.90;0.90;;;9.10;99.90;;;;;;4969225;28;20289;-66
2022/11/03 01:49:41;;;;;;;1.30;1.20;;;9.10;99.90;;;;;;4976811;28;20226;-66
2022/11/03 01:52:11;;;;;;;1.10;1.00;;;9.10;99.90;;;;;;4969939;28;20226;-66
2022/11/03 01:54:41;;;;;;;0.77;0.77;;;9.00;99.90;;;;;;4974063;28;20691;-66
2022/11/03 01:57:13;;;;;;;1.10;1.00;;;9.00;99.90;;;;;;4974826;28;20211;-66
2022/11/03 01:59:40;;;;;;;0.97;0.97;;;9.00;99.90;;;;;;4975038;28;20206;-66
2022/11/03 02:02:09;;;;;;;1.10;1.00;;;9.00;99.90;;;;;;4974522;28;20325;-65
2022/11/03 02:04:36;;;;;;;0.90;0.90;;;9.00;99.90;;;;;;4973733;28;20202;-66
2022/11/03 02:07:14;;;;;;;1.33;1.03;;;8.90;99.90;;;;;;4974853;28;20199;-66
2022/11/03 02:09:41;;;;;;;0.97;0.97;;;8.90;99.90;;;;;;4977332;28;20236;-65
2022/11/03 02:12:09;;;;;;;0.97;0.97;;;8.90;99.90;;;;;;4974773;28;20226;-65
2022/11/03 02:14:42;;;;;;;1.03;1.03;;;8.90;99.90;;;;;;4975705;28;20207;-66
2022/11/03 02:17:13;;;;;;;0.80;0.80;;;8.90;99.90;;;;;;4977465;28;20307;-66
2022/11/03 02:19:44;;;;;;;1.37;1.27;;;8.80;99.90;;;;;;4976887;28;20605;-66
2022/11/03 02:22:54;;;;;;;0.80;0.80;;;8.90;99.90;;;;;;4977335;28;20226;-66
2022/11/03 02:25:43;;;;;;;0.87;0.87;;;8.80;99.90;;;;;;4976737;28;20579;-66
2022/11/03 02:28:12;;;;;;;1.00;1.00;;;8.70;99.90;;;;;;4973376;28;20213;-66
2022/11/03 02:30:43;;;;;;;1.17;1.10;;;8.80;99.90;;;;;;4974114;28;20237;-66
2022/11/03 02:33:20;;;;;;;1.10;1.00;;;8.80;99.90;;;;;;4973435;28;20209;-67
2022/11/03 02:35:53;;;;;;;0.97;0.97;;;8.80;99.90;;;;;;4974907;28;20571;-65
2022/11/03 02:38:23;;;;;;;1.30;1.20;;;8.90;99.90;;;;;;4977751;28;20209;-66
2022/11/03 02:40:54;;;;;;;1.77;1.10;;;8.90;99.90;;;;;;4977003;28;20898;-65
2022/11/03 02:43:23;;;;;;;0.83;0.83;;;8.90;99.90;;;;;;4977037;28;20199;-65
2022/11/03 02:45:52;;;;;;;1.00;1.00;;;9.00;99.90;;;;;;4972983;28;20213;-68
2022/11/03 02:48:19;;;;;;;1.50;1.00;;;9.00;99.90;;;;;;4973469;28;20213;-66
2022/11/03 02:50:47;;;;;;;1.43;1.00;;;9.00;99.90;;;;;;4973714;28;20233;-66
2022/11/03 02:53:15;;;;;;;0.70;0.70;;;9.00;99.90;;;;;;4973370;28;20245;-67
2022/11/03 02:55:51;;;;;;;0.97;0.90;;;9.00;99.90;;;;;;4974070;28;20213;-65
2022/11/03 02:58:27;;;;;;;1.53;1.00;;;9.00;99.90;;;;;;4969105;28;20206;-65
2022/11/03 03:00:58;;;;;;;0.93;0.93;;;9.00;99.90;;;;;;4973884;28;20234;-66
2022/11/03 03:03:29;;;;;;;1.87;1.13;;;8.90;99.90;;;;;;4973742;28;20584;-67
2022/11/03 03:06:00;;;;;;;1.40;1.30;;;8.90;99.90;;;;;;4977710;28;20310;-66
2022/11/03 03:08:28;;;;;;;0.90;0.90;;;8.90;99.90;;;;;;4982652;28;20290;-66
2022/11/03 03:10:58;;;;;;;1.40;1.20;;;8.90;99.90;;;;;;4979771;28;20314;-66
2022/11/03 03:13:27;;;;;;;1.33;1.10;;;8.90;99.90;;;;;;4976658;28;20203;-66
2022/11/03 03:16:06;;;;;;;0.90;0.90;;;9.00;99.90;;;;;;4974804;28;20215;-66
2022/11/03 03:18:44;;;;;;;1.97;1.40;;;8.90;99.90;;;;;;4975309;28;20206;-65
2022/11/03 03:21:16;;;;;;;1.20;1.20;;;8.90;99.90;;;;;;4976574;28;20331;-65
2022/11/03 03:23:48;;;;;;;0.90;0.90;;;9.00;99.90;;;;;;4976264;28;20235;-66
2022/11/03 03:26:21;;;;;;;1.00;1.00;;;8.90;99.90;;;;;;4982197;28;20201;-66
2022/11/03 03:28:53;;;;;;;1.10;1.10;;;9.00;99.90;;;;;;4982531;28;20289;-66
2022/11/03 03:31:23;;;;;;;1.03;1.03;;;9.00;99.90;;;;;;4979870;28;20225;-66
2022/11/03 03:33:52;;;;;;;0.70;0.70;;;9.00;99.90;;;;;;4973974;28;20210;-65
2022/11/03 03:36:21;;;;;;;1.10;1.00;;;9.10;99.90;;;;;;4976229;28;20657;-66
2022/11/03 03:38:52;;;;;;;1.20;1.20;;;9.10;99.90;;;;;;4982607;28;20215;-66
2022/11/03 03:41:21;;;;;;;1.50;0.90;;;9.00;99.90;;;;;;4980450;28;20223;-66
2022/11/03 03:43:50;;;;;;;0.80;0.80;;;9.00;99.90;;;;;;4982030;28;20221;-66
2022/11/03 03:46:20;;;;;;;1.20;1.10;;;8.90;99.90;;;;;;4981820;28;20218;-66
2022/11/03 03:48:46;;;;;;;1.03;1.03;;;8.90;99.90;;;;;;4982185;28;20206;-66
2022/11/03 03:51:15;;;;;;;0.97;0.97;;;8.90;99.90;;;;;;4983880;28;20230;-65
2022/11/03 03:53:42;;;;;;;1.10;1.10;;;8.90;99.90;;;;;;4983510;28;20298;-68
2022/11/03 03:56:09;;;;;;;1.00;1.00;;;9.00;99.90;;;;;;4981953;28;20274;-66
2022/11/03 03:58:36;;;;;;;0.90;0.90;;;8.90;99.90;;;;;;4985970;28;20274;-66
2022/11/03 04:01:04;;;;;;;1.33;1.10;;;9.00;99.90;;;;;;4981324;28;20298;-66
2022/11/03 04:03:31;;;;;;;1.20;1.10;;;9.00;99.90;;;;;;4983152;28;20198;-66
2022/11/03 04:05:58;;;;;;;1.07;1.00;;;9.00;99.90;;;;;;4981896;28;20226;-66
2022/11/03 04:08:24;;;;;;;1.47;1.07;;;9.00;99.90;;;;;;4982097;28;20209;-66
2022/11/03 04:22:17;;;;;;;1.40;1.10;;;9.00;99.90;;;;;;4977742;28;20237;-65
2022/11/03 04:25:10;;;;;;;0.80;0.80;;;9.00;99.90;;;;;;4981708;28;20207;-66
2022/11/03 04:27:49;;;;;;;0.90;0.90;;;9.00;99.90;;;;;;4984078;28;20207;-66
2022/11/03 04:30:25;;;;;;;1.10;0.93;;;9.00;99.90;;;;;;4983921;28;20241;-66
2022/11/03 04:32:53;;;;;;;0.97;0.97;;;8.90;99.90;;;;;;4987285;28;20502;-65
2022/11/03 04:35:23;;;;;;;0.90;0.90;;;9.00;99.90;;;;;;4992828;28;20295;-67
2022/11/03 04:37:56;;;;;;;1.00;1.00;;;9.00;99.90;;;;;;4980386;28;20285;-65
2022/11/03 04:40:22;;;;;;;1.10;1.10;;;8.90;99.90;;;;;;4979383;28;20289;-66
2022/11/03 04:42:50;;;;;;;0.80;0.80;;;9.00;99.90;;;;;;4977276;28;20203;-66
2022/11/03 04:45:23;;;;;;;0.70;0.70;;;8.90;99.90;;;;;;4977422;28;20295;-66
2022/11/03 04:47:51;;;;;;;0.73;0.73;;;8.90;99.90;;;;;;4977574;28;20202;-66
2022/11/03 04:50:21;;;;;;;1.10;1.00;;;9.00;99.90;;;;;;4977266;28;20617;-66
2022/11/03 04:52:51;;;;;;;1.13;1.00;;;9.00;99.90;;;;;;4976040;28;20217;-65
2022/11/03 04:55:20;;;;;;;1.07;1.00;;;9.00;99.90;;;;;;4976874;28;20206;-66
2022/11/03 04:57:47;;;;;;;1.23;1.00;;;9.10;99.90;;;;;;4976842;28;20242;-66
2022/11/03 05:00:16;;;;;;;0.90;0.90;;;9.10;99.90;;;;;;4976572;28;20206;-67
2022/11/03 05:02:44;;;;;;;0.80;0.80;;;9.00;99.90;;;;;;4975624;28;20219;-65
2022/11/03 05:05:21;;;;;;;1.27;1.20;;;9.00;99.90;;;;;;4976135;28;20205;-65
2022/11/03 05:07:50;;;;;;;1.00;1.00;;;9.00;99.90;;;;;;4976810;28;20286;-65
2022/11/03 05:10:19;;;;;;;1.00;1.00;;;9.00;99.90;;;;;;4976001;28;20227;-65
2022/11/03 05:12:47;;;;;;;1.73;1.10;;;9.00;99.90;;;;;;4975606;28;20211;-65
2022/11/03 05:15:29;;;;;;;1.30;1.17;;;9.00;99.90;;;;;;4976213;28;20302;-66
2022/11/03 05:17:58;;;;;;;1.10;1.00;;;9.10;99.90;;;;;;4976246;28;20715;-66
2022/11/03 05:20:31;;;;;;;1.07;1.07;;;9.10;99.90;;;;;;4976503;28;20201;-66
2022/11/03 05:22:58;;;;;;;0.80;0.80;;;9.20;99.90;;;;;;4976269;28;20294;-67
2022/11/03 05:25:39;;;;;;;1.13;1.13;;;9.20;99.90;;;;;;4980001;28;20199;-66
2022/11/03 05:28:19;;;;;;;1.10;0.93;;;9.20;99.90;;;;;;4972574;28;20235;-66
2022/11/03 05:30:46;;;;;;;0.80;0.80;;;9.20;99.90;;;;;;4981126;28;20250;-66
2022/11/03 05:33:24;;;;;;;0.90;0.90;;;9.20;99.90;;;;;;4977110;28;20202;-66
2022/11/03 05:35:52;;;;;;;0.83;0.83;;;9.10;99.90;;;;;;4978202;28;20210;-66
2022/11/03 05:38:21;;;;;;;1.07;1.07;;;9.20;99.90;;;;;;4981351;28;20237;-66
2022/11/03 05:40:51;;;;;;;0.93;0.87;;;9.20;99.90;;;;;;4985338;28;20246;-65
2022/11/03 05:43:19;;;;;;;1.20;1.10;;;9.20;99.90;;;;;;4974841;28;20214;-66
2022/11/03 05:45:49;;;;;;;1.00;1.00;;;9.30;99.90;;;;;;4984987;28;20198;-66
2022/11/03 05:48:21;;;;;;;0.80;0.80;;;9.30;99.90;;;;;;4984806;28;20227;-66
2022/11/03 05:50:48;;;;;;;0.97;0.97;;;9.30;99.90;;;;;;4978040;28;20314;-66
2022/11/03 05:53:29;;;;;;;0.97;0.97;;;9.20;99.90;;;;;;4968619;28;20233;-66
2022/11/03 05:55:58;;;;;;;0.80;0.80;;;9.10;99.90;;;;;;4975083;28;20200;-66
2022/11/03 05:58:28;;;;;;;0.80;0.80;;;9.10;99.90;;;;;;4973708;28;20210;-66
2022/11/03 06:00:56;;;;;;;0.90;0.90;;;9.00;99.90;;;;;;4968830;28;20701;-66
2022/11/03 06:03:26;;;;;;;0.90;0.90;;;9.00;99.90;;;;;;4971813;28;20256;-66
2022/11/03 06:05:54;;;;;;;0.80;0.80;;;9.00;99.90;;;;;;4973951;28;20297;-65
2022/11/03 06:08:25;;;;;;;1.23;1.13;;;9.00;99.90;;;;;;4974557;28;20209;-66
2022/11/03 06:10:55;;;;;;;1.00;1.00;;;9.10;99.90;;;;;;4974204;28;20262;-66
2022/11/03 06:13:27;;;;;;;1.00;0.93;;;9.10;99.90;;;;;;4972868;28;20281;-64
2022/11/03 06:15:58;;;;;;;1.40;1.00;;;9.00;99.90;;;;;;4977128;28;20203;-66
2022/11/03 06:18:29;;;;;;;0.97;0.97;;;9.00;99.90;;;;;;4980800;28;20293;-66
2022/11/03 06:20:59;;;;;;;1.03;1.03;;;9.00;99.90;;;;;;4967103;28;20290;-66
2022/11/03 06:23:26;;;;;;;1.13;1.03;;;8.90;99.90;;;;;;4971331;28;20293;-66
2022/11/03 06:25:56;;;;;;;0.70;0.70;;;8.90;99.90;;;;;;4969851;28;20202;-65
2022/11/03 06:28:26;;;;;;;1.37;1.00;;;8.90;99.90;;;;;;4975026;28;20289;-66
2022/11/03 06:30:53;;;;;;;0.93;0.93;;;8.80;99.90;;;;;;4974876;28;20234;-66
2022/11/03 06:33:23;;;;;;;1.10;1.00;;;8.90;99.90;;;;;;4972780;28;20205;-65
2022/11/03 06:35:53;;;;;;;0.80;0.80;;;8.80;99.90;;;;;;4973634;28;20238;-65
2022/11/03 06:38:22;;;;;;;1.07;1.07;;;8.80;99.90;;;;;;4976995;28;20568;-66
2022/11/03 06:40:51;;;;;;;1.00;1.00;;;8.80;99.90;;;;;;4974796;28;20219;-66
2022/11/03 06:43:23;;;;;;;0.90;0.90;;;8.80;99.90;;;;;;4973784;28;20206;-66
2022/11/03 06:45:53;;;;;;;1.20;1.10;;;8.90;99.90;;;;;;4973350;28;20207;-65
2022/11/03 06:48:27;;;;;;;1.00;1.00;;;9.00;99.90;;;;;;4974761;28;20575;-65
2022/11/03 06:50:54;;;;;;;0.90;0.90;;;9.00;99.90;;;;;;4974171;28;20230;-66
2022/11/03 06:53:27;;;;;;;1.53;1.20;;;9.00;99.90;;;;;;4975660;28;20587;-66
2022/11/03 06:55:55;;;;;;;1.20;1.10;;;9.00;99.90;;;;;;4974452;28;20206;-66
2022/11/03 06:58:28;;;;;;;0.80;0.80;;;9.10;99.90;;;;;;4974110;28;20210;-66
2022/11/03 07:00:57;;;;;;;0.90;0.90;;;9.10;99.90;;;;;;4970729;28;20226;-66
2022/11/03 07:03:27;;;;;;;1.00;1.00;;;9.10;99.90;;;;;;4973960;28;20209;-65
2022/11/03 07:06:00;;;;;;;1.23;1.23;;;9.20;99.90;;;;;;4981698;28;20547;-65
2022/11/03 07:08:29;;;;;;;1.00;1.00;;;9.30;99.90;;;;;;4970798;28;20209;-66
2022/11/03 07:11:02;;;;;;;1.30;1.10;;;9.40;99.90;;;;;;4962990;28;20582;-66
2022/11/03 07:15:59;;;;;;;1.23;1.23;;;9.50;99.90;;;;;;4996168;28;20679;-64
2022/11/03 07:18:29;;;;;;;1.00;1.00;;;9.50;99.90;;;;;;4993413;28;20198;-64
2022/11/03 07:20:58;;;;;;;1.10;1.10;;;9.60;99.90;;;;;;4997356;28;20194;-63
2022/11/03 07:23:30;;;;;;;0.90;0.90;;;9.60;99.90;;;;;;4993434;28;20209;-63
2022/11/03 07:26:00;;;;;;;0.80;0.80;;;9.70;99.90;;;;;;5002900;28;20202;-63
2022/11/03 07:28:31;;;;;;;0.87;0.87;;;9.70;99.90;;;;;;4999470;28;20293;-65
2022/11/03 07:31:02;;;;;;;1.20;1.10;;;9.80;99.90;;;;;;4991315;28;20225;-62
2022/11/03 07:33:31;;;;;;;1.37;0.90;;;9.80;99.90;;;;;;4990796;28;20305;-64
2022/11/03 07:36:00;;;;;;;0.70;0.70;;;9.80;99.90;;;;;;4992707;28;20663;-63
2022/11/03 07:38:28;;;;;;;1.00;1.00;;;9.80;99.90;;;;;;4992195;28;20601;-63
2022/11/03 07:40:57;;;;;;;1.40;1.30;;;9.80;99.90;;;;;;4994727;28;20198;-62
2022/11/03 07:43:28;;;;;;;1.00;1.00;;;9.80;99.90;;;;;;4993636;28;20201;-63
2022/11/03 07:45:57;;;;;;;1.20;1.10;;;9.80;99.90;;;;;;4993359;28;20202;-64
2022/11/03 07:48:27;;;;;;;1.10;1.03;;;9.90;99.90;;;;;;4992509;28;20209;-65
2022/11/03 07:50:56;;;;;;;1.20;1.10;;;9.90;99.90;;;;;;4993059;28;20222;-64
2022/11/03 07:53:30;;;;;;;1.13;0.93;;;10.00;99.90;;;;;;4993383;28;20209;-64
2022/11/03 07:55:57;;;;;;;0.90;0.90;;;10.10;99.90;;;;;;4993264;28;20695;-64
2022/11/03 07:58:29;;;;;;;0.93;0.93;;;10.20;99.90;;;;;;4993529;28;20206;-65
2022/11/03 08:00:57;;;;;;;0.97;0.97;;;10.30;99.90;;;;;;4992635;28;20198;-63
2022/11/03 08:03:43;;;;;;;0.90;0.90;;;10.40;99.90;;;;;;4995198;28;20202;-63
2022/11/03 08:06:10;;;;;;;1.00;1.00;;;10.60;99.90;;;;;;4992374;28;20202;-63
2022/11/03 08:08:37;;;;;;;1.10;1.07;;;10.70;99.90;;;;;;4993791;28;20663;-63
2022/11/03 08:11:04;;;;;;;1.00;1.00;;;10.80;99.90;;;;;;4993102;28;20309;-64
2022/11/03 08:13:31;;;;;;;0.90;0.90;;;10.80;99.90;;;;;;5000283;28;20212;-64
2022/11/03 08:15:58;;;;;;;0.97;0.90;;;10.90;99.90;;;;;;4997032;28;20297;-64
2022/11/03 08:18:25;;;;;;;0.90;0.90;;;10.90;99.90;;;;;;4992677;28;20198;-64
2022/11/03 08:20:53;;;;;;;1.00;1.00;;;11.00;99.90;;;;;;4996607;28;20220;-63
2022/11/03 08:23:20;;;;;;;0.90;0.90;;;11.00;99.90;;;;;;4992419;28;20305;-62
2022/11/03 08:25:47;;;;;;;0.80;0.80;;;11.10;99.90;;;;;;4999617;28;20198;-64
2022/11/03 08:28:15;;;;;;;0.80;0.80;;;11.20;99.90;;;;;;4992535;28;20201;-63
2022/11/03 08:30:41;;;;;;;1.00;1.00;;;11.30;99.90;;;;;;4993009;28;20599;-63
2022/11/03 08:33:08;;;;;;;0.90;0.90;;;11.50;99.90;;;;;;4991312;28;20299;-64
2022/11/03 08:35:35;;;;;;;0.90;0.90;;;11.60;99.90;;;;;;4992413;28;20230;-63
2022/11/03 08:38:03;;;;;;;1.00;1.00;;;11.60;99.90;;;;;;4992215;28;20206;-63
2022/11/03 08:40:31;;;;;;;1.00;1.00;;;11.70;99.90;;;;;;4992368;28;20230;-63
2022/11/03 08:42:59;;;;;;;0.90;0.90;;;11.80;99.90;;;;;;4991039;28;20214;-64
2022/11/03 08:45:26;;;;;;;1.00;1.00;;;11.90;99.90;;;;;;4992046;28;20292;-64
2022/11/03 08:47:53;;;;;;;0.90;0.90;;;11.90;99.90;;;;;;4992020;28;20210;-62
2022/11/03 08:50:20;;;;;;;1.03;1.03;;;11.90;99.90;;;;;;4992369;28;20202;-64
2022/11/03 08:52:46;;;;;;;1.13;1.10;;;12.00;99.90;;;;;;4991385;28;20210;-63
2022/11/03 08:55:15;;;;;;;1.00;1.00;;;12.00;99.90;;;;;;4994595;28;20246;-63
2022/11/03 08:57:42;;;;;;;1.00;1.00;;;12.10;99.90;;;;;;4995087;28;20439;-63
2022/11/03 09:00:10;;;;;;;0.73;0.73;;;12.20;99.90;;;;;;4994116;28;20248;-63
2022/11/03 09:02:37;;;;;;;1.20;1.10;;;12.30;99.90;;;;;;4988989;28;20305;-64
2022/11/03 09:05:04;;;;;;;0.80;0.80;;;12.40;99.90;;;;;;4997323;28;20218;-62
2022/11/03 09:07:31;;;;;;;1.43;1.33;;;12.40;99.90;;;;;;4996227;28;20213;-63
2022/11/03 09:09:58;;;;;;;1.23;1.23;;;12.50;99.90;;;;;;4996909;28;20202;-62
2022/11/03 09:12:26;;;;;;;2.17;1.40;;;12.60;99.90;;;;;;4998057;28;20222;-63
2022/11/03 09:14:53;;;;;;;1.50;1.23;;;12.70;99.90;;;;;;4999149;28;20233;-63
2022/11/03 09:17:20;;;;;;;1.27;1.27;;;12.70;99.90;;;;;;4994963;28;20678;-62
2022/11/03 09:19:47;;;;;;;1.27;1.20;;;12.80;99.90;;;;;;4997874;28;20209;-61
2022/11/03 09:22:13;;;;;;;1.60;1.47;;;12.70;99.90;;;;;;4995382;28;20202;-62
2022/11/03 09:24:40;;;;;;;1.37;1.30;;;12.70;99.90;;;;;;4996223;28;20222;-63
2022/11/03 09:27:07;;;;;;;1.40;1.30;;;12.70;99.90;;;;;;4998057;28;20600;-64
2022/11/03 09:29:35;;;;;;;1.40;1.30;;;12.60;99.90;;;;;;4998110;28;20254;-64
2022/11/03 09:32:02;;;;;;;1.37;1.30;;;12.60;99.90;;;;;;4997395;28;20226;-62
2022/11/03 09:34:29;;;;;;;1.70;1.60;;;12.70;99.90;;;;;;4995318;28;20226;-62
2022/11/03 09:36:56;;;;;;;1.60;1.50;;;12.80;99.90;;;;;;4995337;28;20202;-62
2022/11/03 09:39:23;;;;;;;1.10;1.10;;;12.90;99.90;;;;;;4999451;28;20209;-64
2022/11/03 09:41:50;;;;;;;1.37;1.27;;;13.10;99.90;;;;;;4996798;28;20202;-63
2022/11/03 09:44:17;;;;;;;1.50;1.00;;;13.30;99.90;;;;;;4993935;28;20561;-63
2022/11/03 09:46:46;;;;;;;0.90;0.90;;;13.50;99.90;;;;;;4995095;28;20643;-64
2022/11/03 09:49:15;;;;;;;0.90;0.90;;;13.70;99.90;;;;;;4996428;28;20230;-66
2022/11/03 09:51:43;;;;;;;0.77;0.77;;;13.80;99.90;;;;;;4993421;28;20230;-65
2022/11/03 09:54:14;;;;;;;0.90;0.90;;;13.90;99.90;;;;;;4995343;28;20667;-65
2022/11/03 09:56:42;;;;;;;1.27;1.17;;;13.90;99.90;;;;;;4998840;28;20209;-65
2022/11/03 09:59:15;;;;;;;1.00;1.00;;;14.00;99.90;;;;;;4996161;28;20229;-63
2022/11/03 10:01:47;;;;;;;1.00;1.00;;;14.00;99.90;;;;;;5000964;28;20611;-64
2022/11/03 10:04:15;;;;;;;1.10;1.00;;;14.00;99.90;;;;;;4988193;28;20774;-64
2022/11/03 10:06:42;;;;;;;1.13;1.03;;;14.10;99.90;;;;;;4998889;28;20869;-65
2022/11/03 10:09:14;;;;;;;0.93;0.93;;;14.20;99.90;;;;;;5000224;28;20214;-63
2022/11/03 10:11:41;;;;;;;1.17;1.07;;;14.20;99.90;;;;;;4996493;28;20227;-66
2022/11/03 10:14:11;;;;;;;0.93;0.90;;;14.20;99.90;;;;;;4993780;28;20234;-65
2022/11/03 10:16:39;;;;;;;1.03;1.03;;;14.30;99.90;;;;;;5003990;28;20296;-65
2022/11/03 10:19:11;;;;;;;1.00;1.00;;;14.40;99.90;;;;;;4999386;28;20657;-63
2022/11/03 10:21:39;;;;;;;0.77;0.77;;;14.40;99.90;;;;;;5003022;28;20200;-64
2022/11/03 10:24:06;;;;;;;1.03;1.00;;;14.40;99.90;;;;;;4997362;28;20601;-64
2022/11/03 10:26:44;;;;;;;0.90;0.90;;;14.40;99.90;;;;;;4999108;28;20210;-64
2022/11/03 10:29:19;;;;;;;0.90;0.90;;;14.50;99.90;;;;;;4996652;28;20209;-63
2022/11/03 10:31:50;;;;;;;0.83;0.83;;;14.60;99.90;;;;;;4998307;28;20605;-64
2022/11/03 10:34:34;;;;;;;1.03;1.00;;;14.70;99.90;;;;;;4996869;28;20222;-65
2022/11/03 10:37:16;;;;;;;0.90;0.90;;;14.80;99.90;;;;;;4990385;28;20202;-65
2022/11/03 10:39:43;;;;;;;0.80;0.80;;;14.90;99.90;;;;;;4992633;28;20569;-66
2022/11/03 10:42:18;;;;;;;0.93;0.93;;;15.00;99.90;;;;;;4994811;28;20226;-63
2022/11/03 10:44:45;;;;;;;1.47;0.83;;;15.10;99.90;;;;;;4991738;28;20236;-64
2022/11/03 10:47:24;;;;;;;1.30;1.20;;;15.10;99.90;;;;;;4995979;28;20653;-63
2022/11/03 10:49:54;;;;;;;1.20;1.10;;;15.20;99.90;;;;;;4993122;28;20575;-65
2022/11/03 10:52:23;;;;;;;1.30;1.13;;;15.20;99.90;;;;;;4993938;28;20222;-65
2022/11/03 10:54:52;;;;;;;1.30;1.23;;;15.00;99.90;;;;;;4993181;28;20248;-65
2022/11/03 10:57:20;;;;;;;1.10;1.10;;;15.00;99.90;;;;;;4993977;28;20221;-65
2022/11/03 10:59:49;;;;;;;1.20;1.20;;;15.00;99.90;;;;;;4993407;28;20208;-64
2022/11/03 11:02:18;;;;;;;1.10;1.10;;;15.20;99.90;;;;;;4994211;28;20920;-64
2022/11/03 11:04:47;;;;;;;0.90;0.90;;;15.20;99.90;;;;;;4994757;28;20233;-63
2022/11/03 11:07:33;;;;;;;0.77;0.77;;;15.30;99.90;;;;;;4995812;28;20202;-62
2022/11/03 11:10:07;;;;;;;0.50;0.50;;;15.50;99.90;;;;;;4994703;28;20201;-64
2022/11/03 11:12:34;;;;;;;0.50;0.50;;;15.70;99.90;;;;;;4993575;28;20224;-66
2022/11/03 11:15:06;;;;;;;0.60;0.60;;;15.70;99.90;;;;;;4993439;28;20719;-65
2022/11/03 11:17:44;;;;;;;0.80;0.80;;;15.90;99.90;;;;;;4993670;28;20214;-62
2022/11/03 11:20:32;;;;;;;0.90;0.80;;;16.00;99.90;;;;;;4993325;28;20210;-64
2022/11/03 11:23:48;;;;;;;0.77;0.77;;;16.10;99.90;;;;;;4992008;28;20556;-64
2022/11/03 11:26:46;;;;;;;0.50;0.50;;;16.20;99.90;;;;;;4987034;28;20198;-67
2022/11/03 11:29:43;;;;;;;0.67;0.67;;;16.30;99.90;;;;;;4990911;28;20198;-65
2022/11/03 11:32:52;;;;;;;0.70;0.70;;;16.30;99.90;;;;;;4987721;28;20214;-64
2022/11/03 11:36:07;;;;;;;0.60;0.60;;;16.30;99.90;;;;;;4987753;28;20226;-63
2022/11/03 11:39:04;;;;;;;0.50;0.50;;;16.30;99.90;;;;;;4992649;28;20594;-64
2022/11/03 11:42:12;;;;;;;0.60;0.60;;;16.30;99.90;;;;;;4989117;28;20194;-64
2022/11/03 11:45:00;;;;;;;0.77;0.77;;;16.30;99.90;;;;;;4991264;28;20225;-63
2022/11/03 11:47:33;;;;;;;0.70;0.70;;;16.40;99.90;;;;;;4992495;28;20237;-65
2022/11/03 11:50:22;;;;;;;0.70;0.70;;;16.30;99.90;;;;;;4984658;28;20216;-64
2022/11/03 11:52:56;;;;;;;0.77;0.73;;;16.40;99.90;;;;;;4991703;28;20226;-63
2022/11/03 11:55:31;;;;;;;0.70;0.70;;;16.40;99.90;;;;;;4993118;28;20302;-64
2022/11/03 11:58:01;;;;;;;0.60;0.60;;;16.50;99.90;;;;;;4998748;28;20205;-65
2022/11/03 12:00:30;;;;;;;0.57;0.57;;;16.40;99.90;;;;;;4992996;28;20208;-64
2022/11/03 12:02:59;;;;;;;0.80;0.80;;;16.40;99.90;;;;;;4991414;28;20202;-63
2022/11/03 12:05:28;;;;;;;0.60;0.60;;;16.50;99.90;;;;;;4992935;28;20226;-63
2022/11/03 12:07:56;;;;;;;0.80;0.80;;;16.40;99.90;;;;;;4992439;28;20210;-64
2022/11/03 12:10:26;;;;;;;0.77;0.77;;;16.40;99.90;;;;;;4992380;28;20220;-64
2022/11/03 12:12:53;;;;;;;0.80;0.80;;;16.50;99.90;;;;;;4992181;28;20233;-65
2022/11/03 12:15:50;;;;;;;1.00;1.00;;;16.40;99.90;;;;;;4992360;28;20314;-63
2022/11/03 12:18:30;;;;;;;0.80;0.80;;;16.30;99.90;;;;;;4988752;28;20202;-66
2022/11/03 12:20:57;;;;;;;0.97;0.97;;;16.40;99.90;;;;;;4992123;28;20204;-64
2022/11/03 12:23:48;;;;;;;1.03;1.03;;;16.40;99.90;;;;;;4991272;28;20297;-64
2022/11/03 12:26:17;;;;;;;0.80;0.80;;;16.40;99.90;;;;;;4977546;28;20208;-64
2022/11/03 12:28:44;;;;;;;0.90;0.90;;;16.50;99.90;;;;;;4992188;28;20213;-64
2022/11/03 12:31:12;;;;;;;0.80;0.80;;;16.40;99.90;;;;;;4992672;28;20202;-64
2022/11/03 12:33:40;;;;;;;0.90;0.90;;;16.40;99.90;;;;;;4991271;28;20593;-63
2022/11/03 12:36:07;;;;;;;0.63;0.63;;;16.40;99.90;;;;;;4992666;28;20206;-63
2022/11/03 12:38:34;;;;;;;1.00;1.00;;;16.40;99.90;;;;;;4993968;28;20205;-64
2022/11/03 12:41:20;;;;;;;0.80;0.80;;;16.40;99.90;;;;;;4995847;28;20198;-63
2022/11/03 12:43:47;;;;;;;0.60;0.60;;;16.40;99.90;;;;;;4995463;28;20316;-66
2022/11/03 12:46:16;;;;;;;0.90;0.90;;;16.40;99.90;;;;;;4998032;28;20210;-65
2022/11/03 12:48:43;;;;;;;0.80;0.80;;;16.50;99.90;;;;;;4996188;28;20218;-63
2022/11/03 12:51:12;;;;;;;0.50;0.50;;;16.40;99.90;;;;;;4997141;28;20209;-66
2022/11/03 12:53:39;;;;;;;0.70;0.70;;;16.50;99.90;;;;;;4996687;28;20252;-64
2022/11/03 12:56:05;;;;;;;0.70;0.70;;;16.40;99.90;;;;;;4997488;28;20204;-65
2022/11/03 12:58:32;;;;;;;0.73;0.73;;;16.50;99.90;;;;;;4996031;28;20300;-65
2022/11/03 13:00:59;;;;;;;0.60;0.60;;;16.50;99.90;;;;;;4996250;28;20206;-63
2022/11/03 13:03:28;;;;;;;0.90;0.90;;;16.60;99.90;;;;;;4990724;28;20225;-66
2022/11/03 13:05:55;;;;;;;0.80;0.80;;;16.50;99.90;;;;;;4996440;28;20217;-64
2022/11/03 13:08:23;;;;;;;0.67;0.67;;;16.50;99.90;;;;;;4995919;28;20202;-64
2022/11/03 13:10:50;;;;;;;0.47;0.47;;;16.50;99.90;;;;;;4995649;28;20695;-64
2022/11/03 13:13:17;;;;;;;0.60;0.60;;;16.50;99.90;;;;;;4994674;28;20668;-64
2022/11/03 13:15:43;;;;;;;0.57;0.57;;;16.50;99.90;;;;;;4995467;28;20256;-63
2022/11/03 13:18:10;;;;;;;0.60;0.60;;;16.50;99.90;;;;;;4998267;28;20677;-62
2022/11/03 13:20:39;;;;;;;0.83;0.83;;;16.50;99.90;;;;;;5002874;28;20215;-62
2022/11/03 13:23:06;;;;;;;0.70;0.70;;;16.50;99.90;;;;;;4996442;28;20276;-65
2022/11/03 13:25:33;;;;;;;0.63;0.63;;;16.50;99.90;;;;;;4994753;28;20739;-64
2022/11/03 13:28:01;;;;;;;0.50;0.50;;;16.50;99.90;;;;;;4987417;28;20218;-65
2022/11/03 13:30:28;;;;;;;0.70;0.70;;;16.50;99.90;;;;;;4998371;28;20229;-64